sensor_id;sensor_type;location;lat;lon;timestamp;P1;durP1;ratioP1;P2;durP2;ratioP2
38117;SDS011;23928;47.562;7.508;2023-07-02T00:00:57;4.83;;;3.53;;
38117;SDS011;23928;47.562;7.508;2023-07-02T00:03:24;4.03;;;3.63;;
38117;SDS011;23928;47.562;7.508;2023-07-02T00:05:49;3.40;;;3.03;;
38117;SDS011;23928;47.562;7.508;2023-07-02T00:08:19;3.90;;;3.13;;
38117;SDS011;23928;47.562;7.508;2023-07-02T00:10:45;4.10;;;3.70;;
38117;SDS011;23928;47.562;7.508;2023-07-02T00:13:11;4.57;;;3.40;;
38117;SDS011;23928;47.562;7.508;2023-07-02T00:15:36;3.43;;;3.13;;
38117;SDS011;23928;47.562;7.508;2023-07-02T00:18:02;6.07;;;3.70;;
38117;SDS011;23928;47.562;7.508;2023-07-02T00:20:27;6.23;;;3.47;;
38117;SDS011;23928;47.562;7.508;2023-07-02T00:22:55;4.00;;;3.47;;
38117;SDS011;23928;47.562;7.508;2023-07-02T00:25:21;4.20;;;3.57;;
38117;SDS011;23928;47.562;7.508;2023-07-02T00:27:46;7.03;;;4.30;;
38117;SDS011;23928;47.562;7.508;2023-07-02T00:30:12;4.90;;;3.73;;
38117;SDS011;23928;47.562;7.508;2023-07-02T00:32:38;4.30;;;3.53;;
38117;SDS011;23928;47.562;7.508;2023-07-02T00:35:04;6.07;;;4.30;;
38117;SDS011;23928;47.562;7.508;2023-07-02T00:37:30;4.57;;;3.33;;
38117;SDS011;23928;47.562;7.508;2023-07-02T00:39:56;4.57;;;3.57;;
38117;SDS011;23928;47.562;7.508;2023-07-02T00:42:22;5.30;;;4.03;;
38117;SDS011;23928;47.562;7.508;2023-07-02T00:44:48;5.10;;;4.03;;
38117;SDS011;23928;47.562;7.508;2023-07-02T00:47:14;4.17;;;3.77;;
38117;SDS011;23928;47.562;7.508;2023-07-02T00:49:41;8.70;;;3.63;;
38117;SDS011;23928;47.562;7.508;2023-07-02T00:52:07;5.23;;;3.80;;
38117;SDS011;23928;47.562;7.508;2023-07-02T00:54:32;4.73;;;3.73;;
38117;SDS011;23928;47.562;7.508;2023-07-02T00:56:58;6.97;;;3.87;;
38117;SDS011;23928;47.562;7.508;2023-07-02T00:59:27;5.23;;;3.67;;
38117;SDS011;23928;47.562;7.508;2023-07-02T01:01:54;6.90;;;3.90;;
38117;SDS011;23928;47.562;7.508;2023-07-02T01:04:21;5.77;;;3.93;;
38117;SDS011;23928;47.562;7.508;2023-07-02T01:06:52;6.17;;;3.57;;
38117;SDS011;23928;47.562;7.508;2023-07-02T01:09:23;8.93;;;4.03;;
38117;SDS011;23928;47.562;7.508;2023-07-02T01:12:02;5.37;;;3.73;;
38117;SDS011;23928;47.562;7.508;2023-07-02T01:14:33;6.60;;;3.87;;
38117;SDS011;23928;47.562;7.508;2023-07-02T01:17:03;3.73;;;3.30;;
38117;SDS011;23928;47.562;7.508;2023-07-02T01:19:44;6.77;;;3.80;;
38117;SDS011;23928;47.562;7.508;2023-07-02T01:22:10;4.20;;;3.40;;
38117;SDS011;23928;47.562;7.508;2023-07-02T01:24:41;4.63;;;3.77;;
38117;SDS011;23928;47.562;7.508;2023-07-02T01:27:07;7.23;;;3.67;;
38117;SDS011;23928;47.562;7.508;2023-07-02T01:29:32;4.93;;;3.50;;
38117;SDS011;23928;47.562;7.508;2023-07-02T01:32:01;5.03;;;3.77;;
38117;SDS011;23928;47.562;7.508;2023-07-02T01:34:28;6.70;;;4.00;;
38117;SDS011;23928;47.562;7.508;2023-07-02T01:36:53;8.00;;;4.23;;
38117;SDS011;23928;47.562;7.508;2023-07-02T01:39:19;4.33;;;3.90;;
38117;SDS011;23928;47.562;7.508;2023-07-02T01:41:49;6.33;;;3.67;;
38117;SDS011;23928;47.562;7.508;2023-07-02T01:44:16;6.17;;;3.90;;
38117;SDS011;23928;47.562;7.508;2023-07-02T01:46:42;6.30;;;3.87;;
38117;SDS011;23928;47.562;7.508;2023-07-02T01:49:09;7.40;;;3.73;;
38117;SDS011;23928;47.562;7.508;2023-07-02T01:51:35;7.33;;;4.23;;
38117;SDS011;23928;47.562;7.508;2023-07-02T01:54:01;7.17;;;3.90;;
38117;SDS011;23928;47.562;7.508;2023-07-02T01:56:26;5.67;;;3.80;;
38117;SDS011;23928;47.562;7.508;2023-07-02T01:58:53;6.40;;;3.80;;
38117;SDS011;23928;47.562;7.508;2023-07-02T02:01:18;6.37;;;4.60;;
38117;SDS011;23928;47.562;7.508;2023-07-02T02:03:44;6.60;;;3.80;;
38117;SDS011;23928;47.562;7.508;2023-07-02T02:06:10;7.37;;;4.07;;
38117;SDS011;23928;47.562;7.508;2023-07-02T02:08:35;6.27;;;3.60;;
38117;SDS011;23928;47.562;7.508;2023-07-02T02:11:01;6.10;;;3.97;;
38117;SDS011;23928;47.562;7.508;2023-07-02T02:13:26;5.13;;;3.73;;
38117;SDS011;23928;47.562;7.508;2023-07-02T02:15:53;7.57;;;4.00;;
38117;SDS011;23928;47.562;7.508;2023-07-02T02:18:19;6.27;;;3.90;;
38117;SDS011;23928;47.562;7.508;2023-07-02T02:20:45;6.13;;;4.40;;
38117;SDS011;23928;47.562;7.508;2023-07-02T02:23:10;6.27;;;3.87;;
38117;SDS011;23928;47.562;7.508;2023-07-02T02:25:36;7.03;;;4.30;;
38117;SDS011;23928;47.562;7.508;2023-07-02T02:28:01;11.37;;;4.37;;
38117;SDS011;23928;47.562;7.508;2023-07-02T02:30:27;6.53;;;4.13;;
38117;SDS011;23928;47.562;7.508;2023-07-02T02:32:53;6.63;;;4.23;;
38117;SDS011;23928;47.562;7.508;2023-07-02T02:35:18;8.63;;;5.40;;
38117;SDS011;23928;47.562;7.508;2023-07-02T02:37:44;6.87;;;4.87;;
38117;SDS011;23928;47.562;7.508;2023-07-02T02:40:10;8.90;;;4.63;;
38117;SDS011;23928;47.562;7.508;2023-07-02T02:42:36;20.87;;;6.10;;
38117;SDS011;23928;47.562;7.508;2023-07-02T02:45:02;10.27;;;6.23;;
38117;SDS011;23928;47.562;7.508;2023-07-02T02:47:28;7.00;;;5.63;;
38117;SDS011;23928;47.562;7.508;2023-07-02T02:49:53;11.17;;;6.80;;
38117;SDS011;23928;47.562;7.508;2023-07-02T02:52:19;10.30;;;6.33;;
38117;SDS011;23928;47.562;7.508;2023-07-02T02:54:45;11.27;;;6.53;;
38117;SDS011;23928;47.562;7.508;2023-07-02T02:57:11;9.50;;;6.47;;
38117;SDS011;23928;47.562;7.508;2023-07-02T02:59:37;11.77;;;5.97;;
38117;SDS011;23928;47.562;7.508;2023-07-02T03:02:02;9.17;;;6.17;;
38117;SDS011;23928;47.562;7.508;2023-07-02T03:04:29;9.83;;;5.83;;
38117;SDS011;23928;47.562;7.508;2023-07-02T03:06:54;11.20;;;6.27;;
38117;SDS011;23928;47.562;7.508;2023-07-02T03:09:21;11.43;;;6.20;;
38117;SDS011;23928;47.562;7.508;2023-07-02T03:11:46;12.83;;;6.00;;
38117;SDS011;23928;47.562;7.508;2023-07-02T03:14:12;8.70;;;5.73;;
38117;SDS011;23928;47.562;7.508;2023-07-02T03:16:39;8.67;;;5.70;;
38117;SDS011;23928;47.562;7.508;2023-07-02T03:19:05;9.90;;;6.10;;
38117;SDS011;23928;47.562;7.508;2023-07-02T03:21:31;8.20;;;5.23;;
38117;SDS011;23928;47.562;7.508;2023-07-02T03:23:57;12.33;;;6.13;;
38117;SDS011;23928;47.562;7.508;2023-07-02T03:26:23;8.47;;;5.70;;
38117;SDS011;23928;47.562;7.508;2023-07-02T03:28:49;9.17;;;5.93;;
38117;SDS011;23928;47.562;7.508;2023-07-02T03:31:14;7.30;;;5.70;;
38117;SDS011;23928;47.562;7.508;2023-07-02T03:33:40;9.70;;;5.70;;
38117;SDS011;23928;47.562;7.508;2023-07-02T03:36:05;8.50;;;5.13;;
38117;SDS011;23928;47.562;7.508;2023-07-02T03:38:31;6.80;;;5.10;;
38117;SDS011;23928;47.562;7.508;2023-07-02T03:40:57;9.13;;;5.70;;
38117;SDS011;23928;47.562;7.508;2023-07-02T03:43:22;9.53;;;6.37;;
38117;SDS011;23928;47.562;7.508;2023-07-02T03:45:50;10.73;;;5.20;;
38117;SDS011;23928;47.562;7.508;2023-07-02T03:48:16;8.70;;;5.77;;
38117;SDS011;23928;47.562;7.508;2023-07-02T03:50:42;8.63;;;5.63;;
38117;SDS011;23928;47.562;7.508;2023-07-02T03:53:07;12.77;;;6.10;;
38117;SDS011;23928;47.562;7.508;2023-07-02T03:55:33;11.33;;;5.90;;
38117;SDS011;23928;47.562;7.508;2023-07-02T03:57:59;7.93;;;4.93;;
38117;SDS011;23928;47.562;7.508;2023-07-02T04:00:24;8.37;;;5.30;;
38117;SDS011;23928;47.562;7.508;2023-07-02T04:02:50;8.53;;;6.10;;
38117;SDS011;23928;47.562;7.508;2023-07-02T04:05:15;8.23;;;5.20;;
38117;SDS011;23928;47.562;7.508;2023-07-02T04:07:42;8.83;;;5.83;;
38117;SDS011;23928;47.562;7.508;2023-07-02T04:10:08;8.87;;;5.80;;
38117;SDS011;23928;47.562;7.508;2023-07-02T04:12:33;13.03;;;7.97;;
38117;SDS011;23928;47.562;7.508;2023-07-02T04:14:59;12.43;;;8.63;;
38117;SDS011;23928;47.562;7.508;2023-07-02T04:17:25;14.77;;;8.37;;
38117;SDS011;23928;47.562;7.508;2023-07-02T04:19:53;18.27;;;9.67;;
38117;SDS011;23928;47.562;7.508;2023-07-02T04:22:19;20.23;;;11.33;;
38117;SDS011;23928;47.562;7.508;2023-07-02T04:24:45;17.07;;;10.70;;
38117;SDS011;23928;47.562;7.508;2023-07-02T04:27:13;18.27;;;11.17;;
38117;SDS011;23928;47.562;7.508;2023-07-02T04:29:42;22.87;;;11.87;;
38117;SDS011;23928;47.562;7.508;2023-07-02T04:32:08;23.30;;;11.30;;
38117;SDS011;23928;47.562;7.508;2023-07-02T04:34:33;18.40;;;10.93;;
38117;SDS011;23928;47.562;7.508;2023-07-02T04:37:01;19.17;;;11.30;;
38117;SDS011;23928;47.562;7.508;2023-07-02T04:39:27;19.30;;;11.47;;
38117;SDS011;23928;47.562;7.508;2023-07-02T04:41:53;16.37;;;10.73;;
38117;SDS011;23928;47.562;7.508;2023-07-02T04:44:18;19.93;;;11.10;;
38117;SDS011;23928;47.562;7.508;2023-07-02T04:46:47;25.67;;;13.23;;
38117;SDS011;23928;47.562;7.508;2023-07-02T04:49:12;22.43;;;12.07;;
38117;SDS011;23928;47.562;7.508;2023-07-02T04:51:38;20.50;;;12.43;;
38117;SDS011;23928;47.562;7.508;2023-07-02T04:54:03;20.93;;;12.50;;
38117;SDS011;23928;47.562;7.508;2023-07-02T04:56:29;20.10;;;11.47;;
38117;SDS011;23928;47.562;7.508;2023-07-02T04:58:54;27.03;;;12.77;;
38117;SDS011;23928;47.562;7.508;2023-07-02T05:01:20;21.03;;;11.83;;
38117;SDS011;23928;47.562;7.508;2023-07-02T05:03:45;21.27;;;12.00;;
38117;SDS011;23928;47.562;7.508;2023-07-02T05:06:11;21.90;;;12.50;;
38117;SDS011;23928;47.562;7.508;2023-07-02T05:08:37;27.67;;;12.83;;
38117;SDS011;23928;47.562;7.508;2023-07-02T05:11:02;25.77;;;13.47;;
38117;SDS011;23928;47.562;7.508;2023-07-02T05:13:28;22.23;;;12.23;;
38117;SDS011;23928;47.562;7.508;2023-07-02T05:15:53;21.27;;;12.90;;
38117;SDS011;23928;47.562;7.508;2023-07-02T05:18:19;23.83;;;13.57;;
38117;SDS011;23928;47.562;7.508;2023-07-02T05:20:44;24.60;;;13.03;;
38117;SDS011;23928;47.562;7.508;2023-07-02T05:23:10;24.23;;;13.03;;
38117;SDS011;23928;47.562;7.508;2023-07-02T05:25:35;22.20;;;12.47;;
38117;SDS011;23928;47.562;7.508;2023-07-02T05:28:01;27.00;;;15.13;;
38117;SDS011;23928;47.562;7.508;2023-07-02T05:30:27;23.50;;;13.63;;
38117;SDS011;23928;47.562;7.508;2023-07-02T05:32:52;23.73;;;13.63;;
38117;SDS011;23928;47.562;7.508;2023-07-02T05:35:18;23.30;;;13.80;;
38117;SDS011;23928;47.562;7.508;2023-07-02T05:37:43;22.53;;;13.77;;
38117;SDS011;23928;47.562;7.508;2023-07-02T05:40:10;23.53;;;14.37;;
38117;SDS011;23928;47.562;7.508;2023-07-02T05:42:36;24.33;;;14.33;;
38117;SDS011;23928;47.562;7.508;2023-07-02T05:45:02;26.53;;;14.17;;
38117;SDS011;23928;47.562;7.508;2023-07-02T05:47:28;26.67;;;14.33;;
38117;SDS011;23928;47.562;7.508;2023-07-02T05:49:54;26.07;;;14.73;;
38117;SDS011;23928;47.562;7.508;2023-07-02T05:52:19;29.33;;;15.27;;
38117;SDS011;23928;47.562;7.508;2023-07-02T05:54:45;24.03;;;14.07;;
38117;SDS011;23928;47.562;7.508;2023-07-02T05:57:10;25.97;;;15.37;;
38117;SDS011;23928;47.562;7.508;2023-07-02T05:59:37;28.30;;;15.87;;
38117;SDS011;23928;47.562;7.508;2023-07-02T06:02:03;23.03;;;14.67;;
38117;SDS011;23928;47.562;7.508;2023-07-02T06:04:28;24.93;;;15.00;;
38117;SDS011;23928;47.562;7.508;2023-07-02T06:06:54;27.63;;;15.40;;
38117;SDS011;23928;47.562;7.508;2023-07-02T06:09:19;22.43;;;14.63;;
38117;SDS011;23928;47.562;7.508;2023-07-02T06:11:45;26.57;;;14.63;;
38117;SDS011;23928;47.562;7.508;2023-07-02T06:14:10;23.93;;;15.00;;
38117;SDS011;23928;47.562;7.508;2023-07-02T06:16:36;24.20;;;15.00;;
38117;SDS011;23928;47.562;7.508;2023-07-02T06:19:02;27.20;;;15.80;;
38117;SDS011;23928;47.562;7.508;2023-07-02T06:21:27;25.50;;;15.30;;
38117;SDS011;23928;47.562;7.508;2023-07-02T06:23:55;24.10;;;14.87;;
38117;SDS011;23928;47.562;7.508;2023-07-02T06:26:22;22.37;;;13.70;;
38117;SDS011;23928;47.562;7.508;2023-07-02T06:28:48;29.70;;;15.20;;
38117;SDS011;23928;47.562;7.508;2023-07-02T06:31:13;28.53;;;15.67;;
38117;SDS011;23928;47.562;7.508;2023-07-02T06:33:39;26.10;;;15.93;;
38117;SDS011;23928;47.562;7.508;2023-07-02T06:36:08;27.00;;;14.73;;
38117;SDS011;23928;47.562;7.508;2023-07-02T06:38:34;28.60;;;14.87;;
38117;SDS011;23928;47.562;7.508;2023-07-02T06:40:59;27.37;;;14.97;;
38117;SDS011;23928;47.562;7.508;2023-07-02T06:43:25;27.27;;;15.77;;
38117;SDS011;23928;47.562;7.508;2023-07-02T06:45:50;24.63;;;14.23;;
38117;SDS011;23928;47.562;7.508;2023-07-02T06:48:16;24.43;;;15.20;;
38117;SDS011;23928;47.562;7.508;2023-07-02T06:50:46;29.43;;;15.77;;
38117;SDS011;23928;47.562;7.508;2023-07-02T06:53:11;30.77;;;16.00;;
38117;SDS011;23928;47.562;7.508;2023-07-02T06:55:37;22.93;;;14.80;;
38117;SDS011;23928;47.562;7.508;2023-07-02T06:58:04;22.27;;;15.33;;
38117;SDS011;23928;47.562;7.508;2023-07-02T07:00:31;29.20;;;15.77;;
38117;SDS011;23928;47.562;7.508;2023-07-02T07:03:01;32.30;;;16.90;;
38117;SDS011;23928;47.562;7.508;2023-07-02T07:05:30;29.37;;;16.57;;
38117;SDS011;23928;47.562;7.508;2023-07-02T07:07:56;37.13;;;17.77;;
38117;SDS011;23928;47.562;7.508;2023-07-02T07:10:22;30.40;;;17.90;;
38117;SDS011;23928;47.562;7.508;2023-07-02T07:12:48;31.23;;;18.53;;
38117;SDS011;23928;47.562;7.508;2023-07-02T07:15:13;32.00;;;18.83;;
38117;SDS011;23928;47.562;7.508;2023-07-02T07:17:39;31.97;;;18.13;;
38117;SDS011;23928;47.562;7.508;2023-07-02T07:20:05;30.27;;;17.50;;
38117;SDS011;23928;47.562;7.508;2023-07-02T07:22:31;30.03;;;18.63;;
38117;SDS011;23928;47.562;7.508;2023-07-02T07:24:56;30.47;;;19.00;;
38117;SDS011;23928;47.562;7.508;2023-07-02T07:27:22;29.13;;;18.00;;
38117;SDS011;23928;47.562;7.508;2023-07-02T07:29:47;30.57;;;17.67;;
38117;SDS011;23928;47.562;7.508;2023-07-02T07:32:13;35.20;;;18.90;;
38117;SDS011;23928;47.562;7.508;2023-07-02T07:34:38;29.70;;;18.10;;
38117;SDS011;23928;47.562;7.508;2023-07-02T07:37:04;27.47;;;17.57;;
38117;SDS011;23928;47.562;7.508;2023-07-02T07:39:30;30.07;;;18.20;;
38117;SDS011;23928;47.562;7.508;2023-07-02T07:41:56;34.43;;;17.90;;
38117;SDS011;23928;47.562;7.508;2023-07-02T07:44:21;34.10;;;18.00;;
38117;SDS011;23928;47.562;7.508;2023-07-02T07:46:47;29.80;;;17.70;;
38117;SDS011;23928;47.562;7.508;2023-07-02T07:49:13;31.23;;;18.50;;
38117;SDS011;23928;47.562;7.508;2023-07-02T07:51:39;29.20;;;16.90;;
38117;SDS011;23928;47.562;7.508;2023-07-02T07:54:04;28.13;;;17.03;;
38117;SDS011;23928;47.562;7.508;2023-07-02T07:56:30;32.57;;;19.33;;
38117;SDS011;23928;47.562;7.508;2023-07-02T07:58:55;30.57;;;18.90;;
38117;SDS011;23928;47.562;7.508;2023-07-02T08:01:21;31.17;;;18.87;;
38117;SDS011;23928;47.562;7.508;2023-07-02T08:03:47;29.47;;;18.97;;
38117;SDS011;23928;47.562;7.508;2023-07-02T08:06:12;33.10;;;19.63;;
38117;SDS011;23928;47.562;7.508;2023-07-02T08:08:38;31.87;;;19.93;;
38117;SDS011;23928;47.562;7.508;2023-07-02T08:11:03;32.40;;;18.60;;
38117;SDS011;23928;47.562;7.508;2023-07-02T08:13:29;27.40;;;18.00;;
38117;SDS011;23928;47.562;7.508;2023-07-02T08:15:54;30.67;;;19.00;;
38117;SDS011;23928;47.562;7.508;2023-07-02T08:18:20;28.20;;;18.40;;
38117;SDS011;23928;47.562;7.508;2023-07-02T08:20:45;29.60;;;18.20;;
38117;SDS011;23928;47.562;7.508;2023-07-02T08:23:11;27.77;;;17.87;;
38117;SDS011;23928;47.562;7.508;2023-07-02T08:25:37;29.50;;;17.53;;
38117;SDS011;23928;47.562;7.508;2023-07-02T08:28:02;26.03;;;17.63;;
38117;SDS011;23928;47.562;7.508;2023-07-02T08:30:28;27.83;;;17.80;;
38117;SDS011;23928;47.562;7.508;2023-07-02T08:32:53;29.13;;;17.43;;
38117;SDS011;23928;47.562;7.508;2023-07-02T08:35:20;33.13;;;17.20;;
38117;SDS011;23928;47.562;7.508;2023-07-02T08:37:47;30.83;;;17.47;;
38117;SDS011;23928;47.562;7.508;2023-07-02T08:40:17;28.73;;;18.13;;
38117;SDS011;23928;47.562;7.508;2023-07-02T08:42:47;28.63;;;17.97;;
38117;SDS011;23928;47.562;7.508;2023-07-02T08:45:14;27.70;;;17.40;;
38117;SDS011;23928;47.562;7.508;2023-07-02T08:47:41;28.63;;;17.93;;
38117;SDS011;23928;47.562;7.508;2023-07-02T08:50:08;29.97;;;17.37;;
38117;SDS011;23928;47.562;7.508;2023-07-02T08:52:34;29.20;;;17.80;;
38117;SDS011;23928;47.562;7.508;2023-07-02T08:54:59;27.67;;;17.77;;
38117;SDS011;23928;47.562;7.508;2023-07-02T08:57:25;28.27;;;17.97;;
38117;SDS011;23928;47.562;7.508;2023-07-02T08:59:50;28.47;;;18.30;;
38117;SDS011;23928;47.562;7.508;2023-07-02T09:02:16;29.67;;;18.13;;
38117;SDS011;23928;47.562;7.508;2023-07-02T09:04:42;29.43;;;18.10;;
38117;SDS011;23928;47.562;7.508;2023-07-02T09:07:09;29.00;;;18.37;;
38117;SDS011;23928;47.562;7.508;2023-07-02T09:09:45;28.17;;;17.80;;
38117;SDS011;23928;47.562;7.508;2023-07-02T09:15:05;29.37;;;18.37;;
38117;SDS011;23928;47.562;7.508;2023-07-02T09:17:35;29.60;;;17.80;;
38117;SDS011;23928;47.562;7.508;2023-07-02T09:20:03;27.17;;;18.13;;
38117;SDS011;23928;47.562;7.508;2023-07-02T09:22:33;28.53;;;18.17;;
38117;SDS011;23928;47.562;7.508;2023-07-02T09:25:00;27.90;;;17.43;;
38117;SDS011;23928;47.562;7.508;2023-07-02T09:27:39;27.13;;;17.63;;
38117;SDS011;23928;47.562;7.508;2023-07-02T09:30:10;22.93;;;16.70;;
38117;SDS011;23928;47.562;7.508;2023-07-02T09:32:38;27.63;;;17.97;;
38117;SDS011;23928;47.562;7.508;2023-07-02T09:35:04;29.07;;;18.10;;
38117;SDS011;23928;47.562;7.508;2023-07-02T09:37:30;26.83;;;17.47;;
38117;SDS011;23928;47.562;7.508;2023-07-02T09:39:56;27.47;;;17.90;;
38117;SDS011;23928;47.562;7.508;2023-07-02T09:42:22;28.50;;;18.23;;
38117;SDS011;23928;47.562;7.508;2023-07-02T09:44:51;26.73;;;17.67;;
38117;SDS011;23928;47.562;7.508;2023-07-02T09:47:19;24.20;;;16.93;;
38117;SDS011;23928;47.562;7.508;2023-07-02T09:50:07;26.73;;;17.33;;
38117;SDS011;23928;47.562;7.508;2023-07-02T09:52:33;25.97;;;17.43;;
38117;SDS011;23928;47.562;7.508;2023-07-02T09:55:00;27.40;;;18.40;;
38117;SDS011;23928;47.562;7.508;2023-07-02T09:57:26;24.93;;;16.57;;
38117;SDS011;23928;47.562;7.508;2023-07-02T09:59:53;25.70;;;17.40;;
38117;SDS011;23928;47.562;7.508;2023-07-02T10:02:18;26.90;;;16.97;;
38117;SDS011;23928;47.562;7.508;2023-07-02T10:04:45;29.03;;;17.03;;
38117;SDS011;23928;47.562;7.508;2023-07-02T10:07:12;25.67;;;17.17;;
38117;SDS011;23928;47.562;7.508;2023-07-02T10:09:50;30.33;;;17.83;;
38117;SDS011;23928;47.562;7.508;2023-07-02T10:12:19;23.40;;;16.90;;
38117;SDS011;23928;47.562;7.508;2023-07-02T10:14:46;27.33;;;17.13;;
38117;SDS011;23928;47.562;7.508;2023-07-02T10:19:58;28.30;;;18.20;;
38117;SDS011;23928;47.562;7.508;2023-07-02T10:22:26;25.30;;;16.53;;
38117;SDS011;23928;47.562;7.508;2023-07-02T10:24:52;25.40;;;16.37;;
38117;SDS011;23928;47.562;7.508;2023-07-02T10:27:37;21.90;;;15.57;;
38117;SDS011;23928;47.562;7.508;2023-07-02T10:30:07;24.37;;;15.47;;
38117;SDS011;23928;47.562;7.508;2023-07-02T10:32:34;22.70;;;14.30;;
38117;SDS011;23928;47.562;7.508;2023-07-02T10:35:01;16.93;;;13.30;;
38117;SDS011;23928;47.562;7.508;2023-07-02T10:37:36;18.17;;;11.93;;
38117;SDS011;23928;47.562;7.508;2023-07-02T10:40:07;18.57;;;12.53;;
38117;SDS011;23928;47.562;7.508;2023-07-02T10:42:44;18.73;;;12.27;;
38117;SDS011;23928;47.562;7.508;2023-07-02T10:45:13;14.70;;;11.37;;
38117;SDS011;23928;47.562;7.508;2023-07-02T10:47:39;19.13;;;13.63;;
38117;SDS011;23928;47.562;7.508;2023-07-02T10:50:27;18.40;;;12.33;;
38117;SDS011;23928;47.562;7.508;2023-07-02T10:52:52;20.13;;;12.97;;
38117;SDS011;23928;47.562;7.508;2023-07-02T10:57:48;18.33;;;11.97;;
38117;SDS011;23928;47.562;7.508;2023-07-02T11:00:17;18.63;;;12.13;;
38117;SDS011;23928;47.562;7.508;2023-07-02T11:02:44;19.23;;;12.13;;
38117;SDS011;23928;47.562;7.508;2023-07-02T11:05:10;17.87;;;11.67;;
38117;SDS011;23928;47.562;7.508;2023-07-02T11:07:39;19.20;;;12.83;;
38117;SDS011;23928;47.562;7.508;2023-07-02T11:10:06;19.57;;;13.63;;
38117;SDS011;23928;47.562;7.508;2023-07-02T11:12:32;20.97;;;14.10;;
38117;SDS011;23928;47.562;7.508;2023-07-02T11:15:14;19.63;;;12.87;;
38117;SDS011;23928;47.562;7.508;2023-07-02T11:17:41;18.03;;;13.03;;
38117;SDS011;23928;47.562;7.508;2023-07-02T11:20:07;19.07;;;13.47;;
38117;SDS011;23928;47.562;7.508;2023-07-02T11:22:37;19.40;;;12.97;;
38117;SDS011;23928;47.562;7.508;2023-07-02T11:25:13;21.60;;;14.27;;
38117;SDS011;23928;47.562;7.508;2023-07-02T11:27:44;20.40;;;13.93;;
38117;SDS011;23928;47.562;7.508;2023-07-02T11:30:10;16.63;;;11.97;;
38117;SDS011;23928;47.562;7.508;2023-07-02T11:33:09;17.33;;;11.90;;
38117;SDS011;23928;47.562;7.508;2023-07-02T11:35:34;19.10;;;12.07;;
38117;SDS011;23928;47.562;7.508;2023-07-02T11:38:00;16.33;;;10.80;;
38117;SDS011;23928;47.562;7.508;2023-07-02T11:40:26;17.73;;;12.43;;
38117;SDS011;23928;47.562;7.508;2023-07-02T11:59:26;18.37;;;12.90;;
38117;SDS011;23928;47.562;7.508;2023-07-02T12:01:51;17.30;;;12.10;;
38117;SDS011;23928;47.562;7.508;2023-07-02T12:04:17;16.03;;;11.23;;
38117;SDS011;23928;47.562;7.508;2023-07-02T12:06:42;15.00;;;11.07;;
38117;SDS011;23928;47.562;7.508;2023-07-02T12:09:08;15.13;;;11.40;;
38117;SDS011;23928;47.562;7.508;2023-07-02T12:11:34;12.93;;;10.00;;
38117;SDS011;23928;47.562;7.508;2023-07-02T12:14:00;17.43;;;9.87;;
38117;SDS011;23928;47.562;7.508;2023-07-02T12:16:25;15.37;;;9.43;;
38117;SDS011;23928;47.562;7.508;2023-07-02T12:18:51;12.60;;;9.10;;
38117;SDS011;23928;47.562;7.508;2023-07-02T12:21:16;15.03;;;9.40;;
38117;SDS011;23928;47.562;7.508;2023-07-02T12:23:43;16.30;;;10.67;;
38117;SDS011;23928;47.562;7.508;2023-07-02T12:26:09;15.43;;;11.40;;
38117;SDS011;23928;47.562;7.508;2023-07-02T12:28:34;14.90;;;10.87;;
38117;SDS011;23928;47.562;7.508;2023-07-02T12:31:00;17.80;;;11.17;;
38117;SDS011;23928;47.562;7.508;2023-07-02T12:33:27;13.93;;;10.30;;
38117;SDS011;23928;47.562;7.508;2023-07-02T12:35:53;15.80;;;11.20;;
38117;SDS011;23928;47.562;7.508;2023-07-02T12:38:18;16.20;;;10.67;;
38117;SDS011;23928;47.562;7.508;2023-07-02T12:40:44;17.67;;;11.80;;
38117;SDS011;23928;47.562;7.508;2023-07-02T12:43:10;18.83;;;12.77;;
38117;SDS011;23928;47.562;7.508;2023-07-02T12:45:36;17.80;;;13.30;;
38117;SDS011;23928;47.562;7.508;2023-07-02T12:48:01;16.63;;;12.13;;
38117;SDS011;23928;47.562;7.508;2023-07-02T12:50:27;16.07;;;10.97;;
38117;SDS011;23928;47.562;7.508;2023-07-02T12:52:53;14.57;;;11.07;;
38117;SDS011;23928;47.562;7.508;2023-07-02T12:55:18;17.47;;;11.93;;
38117;SDS011;23928;47.562;7.508;2023-07-02T12:57:44;14.50;;;10.70;;
38117;SDS011;23928;47.562;7.508;2023-07-02T13:00:10;15.93;;;11.10;;
38117;SDS011;23928;47.562;7.508;2023-07-02T13:02:35;15.60;;;11.17;;
38117;SDS011;23928;47.562;7.508;2023-07-02T13:05:01;17.57;;;11.47;;
38117;SDS011;23928;47.562;7.508;2023-07-02T13:07:27;16.63;;;11.93;;
38117;SDS011;23928;47.562;7.508;2023-07-02T13:09:55;16.40;;;11.53;;
38117;SDS011;23928;47.562;7.508;2023-07-02T13:12:20;17.30;;;12.20;;
38117;SDS011;23928;47.562;7.508;2023-07-02T13:14:46;17.37;;;11.73;;
38117;SDS011;23928;47.562;7.508;2023-07-02T13:17:12;15.27;;;11.97;;
38117;SDS011;23928;47.562;7.508;2023-07-02T13:19:37;18.43;;;12.77;;
38117;SDS011;23928;47.562;7.508;2023-07-02T13:22:03;17.53;;;12.30;;
38117;SDS011;23928;47.562;7.508;2023-07-02T13:24:32;18.63;;;12.10;;
38117;SDS011;23928;47.562;7.508;2023-07-02T13:27:04;16.33;;;12.30;;
38117;SDS011;23928;47.562;7.508;2023-07-02T13:29:33;19.60;;;12.77;;
38117;SDS011;23928;47.562;7.508;2023-07-02T13:31:59;16.30;;;12.50;;
38117;SDS011;23928;47.562;7.508;2023-07-02T13:34:24;15.53;;;12.17;;
38117;SDS011;23928;47.562;7.508;2023-07-02T13:36:50;16.83;;;12.33;;
38117;SDS011;23928;47.562;7.508;2023-07-02T13:39:16;19.10;;;12.57;;
38117;SDS011;23928;47.562;7.508;2023-07-02T13:41:41;16.93;;;12.20;;
38117;SDS011;23928;47.562;7.508;2023-07-02T13:44:07;18.33;;;13.50;;
38117;SDS011;23928;47.562;7.508;2023-07-02T13:46:33;17.17;;;12.40;;
38117;SDS011;23928;47.562;7.508;2023-07-02T13:48:58;18.03;;;13.10;;
38117;SDS011;23928;47.562;7.508;2023-07-02T13:51:24;18.07;;;12.67;;
38117;SDS011;23928;47.562;7.508;2023-07-02T13:53:49;17.67;;;13.03;;
38117;SDS011;23928;47.562;7.508;2023-07-02T13:56:15;19.70;;;12.70;;
38117;SDS011;23928;47.562;7.508;2023-07-02T14:01:22;16.97;;;13.10;;
38117;SDS011;23928;47.562;7.508;2023-07-02T14:03:48;21.90;;;13.97;;
38117;SDS011;23928;47.562;7.508;2023-07-02T14:06:13;18.27;;;13.43;;
38117;SDS011;23928;47.562;7.508;2023-07-02T14:08:40;22.90;;;14.47;;
38117;SDS011;23928;47.562;7.508;2023-07-02T14:11:06;17.37;;;13.13;;
38117;SDS011;23928;47.562;7.508;2023-07-02T14:13:32;19.33;;;13.10;;
38117;SDS011;23928;47.562;7.508;2023-07-02T14:15:58;18.10;;;13.30;;
38117;SDS011;23928;47.562;7.508;2023-07-02T14:18:24;18.80;;;13.43;;
38117;SDS011;23928;47.562;7.508;2023-07-02T14:20:50;19.37;;;13.13;;
38117;SDS011;23928;47.562;7.508;2023-07-02T14:23:15;19.03;;;13.17;;
38117;SDS011;23928;47.562;7.508;2023-07-02T14:25:41;18.03;;;12.60;;
38117;SDS011;23928;47.562;7.508;2023-07-02T14:28:06;20.10;;;13.50;;
38117;SDS011;23928;47.562;7.508;2023-07-02T14:30:32;18.27;;;13.13;;
38117;SDS011;23928;47.562;7.508;2023-07-02T14:32:58;18.57;;;13.33;;
38117;SDS011;23928;47.562;7.508;2023-07-02T14:35:23;21.70;;;14.13;;
38117;SDS011;23928;47.562;7.508;2023-07-02T14:37:52;19.57;;;13.20;;
38117;SDS011;23928;47.562;7.508;2023-07-02T14:40:18;18.07;;;13.30;;
38117;SDS011;23928;47.562;7.508;2023-07-02T14:42:44;20.47;;;14.37;;
38117;SDS011;23928;47.562;7.508;2023-07-02T14:45:09;18.70;;;13.60;;
38117;SDS011;23928;47.562;7.508;2023-07-02T14:47:35;19.43;;;13.97;;
38117;SDS011;23928;47.562;7.508;2023-07-02T14:50:01;19.37;;;13.60;;
38117;SDS011;23928;47.562;7.508;2023-07-02T14:52:27;20.53;;;14.20;;